Time;durP1;ratioP1;P1;durP2;ratioP2;P2;SDS_P1;SDS_P2;PMS_P1;PMS_P2;Temp;Humidity;BMP_temperature;BMP_pressure;BME280_temperature;BME280_humidity;BME280_pressure;Samples;Min_cycle;Max_cycle;Signal;HPM_P1;HPM_P2
2022/08/08 00:01:37;;;;;;;1.80;0.60;;;;;;;20.01;64.91;95842.62;4269532;33;20214;-57
2022/08/08 00:04:14;;;;;;;0.80;0.80;;;;;;;19.86;63.56;95839.53;4272783;33;20247;-58
2022/08/08 00:06:48;;;;;;;0.43;0.43;;;;;;;19.96;64.21;95840.16;4282788;33;20241;-58
2022/08/08 00:09:27;;;;;;;0.73;0.73;;;;;;;19.75;63.05;95841.09;4280666;33;20262;-57
2022/08/08 00:12:04;;;;;;;0.50;0.50;;;;;;;19.93;64.59;95833.56;4286265;33;20209;-58
2022/08/08 00:14:41;;;;;;;0.70;0.70;;;;;;;19.81;65.09;95834.38;4273345;33;20249;-58
2022/08/08 00:17:19;;;;;;;0.80;0.80;;;;;;;20.00;64.43;95831.06;4276936;33;20201;-58
2022/08/08 00:19:59;;;;;;;0.47;0.47;;;;;;;19.97;64.48;95836.34;4283262;33;20235;-58
2022/08/08 00:22:29;;;;;;;0.40;0.40;;;;;;;20.15;64.75;95826.91;4274708;33;20291;-58
2022/08/08 00:25:03;;;;;;;0.80;0.80;;;;;;;20.16;65.06;95831.16;4281956;33;20243;-58
2022/08/08 00:27:30;;;;;;;1.17;0.50;;;;;;;19.97;64.23;95831.75;4298970;33;20194;-58
2022/08/08 00:29:55;;;;;;;0.73;0.73;;;;;;;19.99;64.29;95826.81;4299473;33;20198;-57
2022/08/08 00:32:24;;;;;;;0.73;0.60;;;;;;;19.90;64.29;95826.19;4288821;33;20261;-58
2022/08/08 00:35:10;;;;;;;1.50;1.33;;;;;;;19.88;63.85;95829.22;4279158;33;20214;-57
2022/08/08 00:38:10;;;;;;;0.70;0.70;;;;;;;19.93;65.37;95835.50;4273850;33;20214;-58
2022/08/08 00:41:10;;;;;;;0.70;0.70;;;;;;;19.88;65.38;95828.41;4294371;33;20197;-58
2022/08/08 00:43:50;;;;;;;0.40;0.40;;;;;;;19.83;64.59;95825.94;4284349;33;20301;-58
2022/08/08 00:46:42;;;;;;;0.53;0.53;;;;;;;19.98;65.54;95825.25;4284473;33;20258;-58
2022/08/08 00:49:33;;;;;;;0.60;0.60;;;;;;;19.72;65.34;95828.34;4281274;33;20252;-58
2022/08/08 00:52:36;;;;;;;0.83;0.83;;;;;;;19.56;65.03;95832.81;4265801;33;20208;-57
2022/08/08 00:55:15;;;;;;;1.60;0.60;;;;;;;19.87;66.47;95826.84;4282789;33;20195;-56
2022/08/08 00:58:11;;;;;;;0.53;0.53;;;;;;;19.83;66.21;95831.34;4281980;33;20252;-58
2022/08/08 01:00:46;;;;;;;0.83;0.83;;;;;;;19.65;64.92;95820.03;4282568;33;20191;-58
2022/08/08 01:03:30;;;;;;;0.60;0.60;;;;;;;19.66;65.16;95840.47;4288482;33;20200;-58
2022/08/08 01:06:10;;;;;;;0.57;0.57;;;;;;;19.65;65.40;95830.81;4285157;33;20225;-58
2022/08/08 01:08:50;;;;;;;0.90;0.90;;;;;;;19.36;65.57;95833.69;4287006;33;20217;-57
2022/08/08 01:11:33;;;;;;;0.67;0.67;;;;;;;19.35;66.22;95834.81;4270139;33;20198;-58
2022/08/08 01:14:04;;;;;;;0.70;0.70;;;;;;;19.47;65.46;95841.00;4281624;33;20198;-58
2022/08/08 01:17:02;;;;;;;2.87;0.87;;;;;;;19.66;67.01;95834.28;4286688;33;20252;-55
2022/08/08 01:19:49;;;;;;;0.37;0.37;;;;;;;19.59;65.91;95826.78;4281088;33;20242;-58
2022/08/08 01:22:17;;;;;;;0.70;0.70;;;;;;;19.51;66.63;95825.00;4277796;33;20194;-58
2022/08/08 01:24:58;;;;;;;1.17;1.10;;;;;;;19.58;65.29;95825.19;4285509;33;20286;-58
2022/08/08 01:27:26;;;;;;;0.70;0.70;;;;;;;19.41;65.63;95825.41;4276068;33;20195;-58
2022/08/08 01:30:00;;;;;;;5.43;0.80;;;;;;;19.40;66.49;95832.69;4288614;33;20207;-57
2022/08/08 01:32:28;;;;;;;0.47;0.47;;;;;;;19.52;67.52;95832.75;4283415;33;20201;-58
2022/08/08 01:34:53;;;;;;;0.53;0.53;;;;;;;19.53;67.26;95833.53;4296648;33;20182;-59
2022/08/08 01:37:44;;;;;;;5.83;1.13;;;;;;;19.67;66.80;95833.16;4292024;33;20320;-56
2022/08/08 01:40:31;;;;;;;0.60;0.60;;;;;;;19.63;66.83;95838.44;4267355;33;20215;-59
2022/08/08 01:43:13;;;;;;;0.20;0.20;;;;;;;19.49;65.54;95829.91;4289673;33;20225;-58
2022/08/08 01:45:57;;;;;;;0.60;0.60;;;;;;;19.49;65.32;95833.38;4284832;33;20221;-58
2022/08/08 01:48:56;;;;;;;0.50;0.50;;;;;;;19.49;65.37;95830.69;4283713;33;20203;-56
2022/08/08 01:51:42;;;;;;;0.80;0.80;;;;;;;19.56;66.61;95835.53;4284542;33;20191;-58
2022/08/08 01:54:17;;;;;;;0.33;0.33;;;;;;;19.43;64.57;95831.25;4281872;33;20234;-58
2022/08/08 01:57:02;;;;;;;0.60;0.60;;;;;;;19.40;64.92;95835.38;4294156;33;20277;-58
2022/08/08 01:59:59;;;;;;;0.43;0.40;;;;;;;19.65;66.87;95830.81;4273494;33;20195;-58
2022/08/08 02:03:17;;;;;;;0.90;0.90;;;;;;;19.28;66.04;95834.59;4289954;33;20206;-58
2022/08/08 02:06:12;;;;;;;0.43;0.40;;;;;;;19.25;65.33;95846.03;4249098;33;20238;-60
2022/08/08 02:09:05;;;;;;;0.60;0.60;;;;;;;19.26;66.35;95848.41;4285938;33;20249;-58
2022/08/08 02:11:47;;;;;;;0.73;0.70;;;;;;;19.33;66.28;95845.91;4286568;33;20198;-57
2022/08/08 02:14:21;;;;;;;0.50;0.50;;;;;;;19.25;65.95;95848.72;4273032;33;20315;-58
2022/08/08 02:17:17;;;;;;;0.80;0.80;;;;;;;19.17;65.97;95840.41;4290196;33;20198;-58
2022/08/08 02:20:32;;;;;;;0.80;0.80;;;;;;;19.15;64.89;95845.34;4288718;33;20421;-58
2022/08/08 02:23:24;;;;;;;0.40;0.40;;;;;;;19.13;66.40;95854.87;4235214;33;20239;-59
2022/08/08 02:26:18;;;;;;;0.57;0.40;;;;;;;19.00;66.74;95843.31;4277304;33;20253;-59
2022/08/08 02:29:09;;;;;;;0.67;0.67;;;;;;;19.25;67.51;95848.72;4284869;33;20237;-57
2022/08/08 02:32:03;;;;;;;0.60;0.60;;;;;;;19.35;66.62;95842.88;4276728;33;20206;-58
2022/08/08 02:35:15;;;;;;;0.20;0.20;;;;;;;19.35;67.14;95842.88;4280265;33;20198;-59
2022/08/08 02:38:18;;;;;;;2.23;0.87;;;;;;;19.23;66.40;95844.47;4299697;33;20199;-57
2022/08/08 02:41:08;;;;;;;0.97;0.60;;;;;;;19.18;65.89;95850.06;4293902;33;20198;-56
2022/08/08 02:44:11;;;;;;;0.60;0.60;;;;;;;19.23;66.96;95849.06;4277701;33;20262;-58
2022/08/08 02:47:01;;;;;;;0.57;0.57;;;;;;;19.19;67.60;95854.31;4288416;33;20198;-58
2022/08/08 02:50:03;;;;;;;0.57;0.57;;;;;;;19.24;66.32;95853.31;4285150;33;20207;-58
2022/08/08 02:52:38;;;;;;;0.33;0.33;;;;;;;19.39;68.12;95855.34;4299933;33;20209;-59
2022/08/08 02:55:12;;;;;;;0.70;0.70;;;;;;;19.41;68.00;95858.50;4290189;33;20189;-58
2022/08/08 02:58:02;;;;;;;0.70;0.70;;;;;;;19.22;67.67;95859.03;4298840;33;20240;-59
2022/08/08 03:01:08;;;;;;;0.50;0.50;;;;;;;19.17;67.40;95861.16;4278376;33;20226;-58
2022/08/08 03:04:13;;;;;;;0.60;0.60;;;;;;;19.15;68.08;95860.69;4293974;33;20198;-58
2022/08/08 03:07:07;;;;;;;0.47;0.47;;;;;;;18.92;67.92;95854.94;4296016;33;20261;-58
2022/08/08 03:09:57;;;;;;;0.83;0.63;;;;;;;19.10;69.17;95858.25;4284485;33;20221;-56
2022/08/08 03:12:49;;;;;;;1.17;0.97;;;;;;;18.94;68.65;95858.09;4296984;33;20202;-58
2022/08/08 03:15:23;;;;;;;0.90;0.90;;;;;;;19.20;68.82;95855.91;4299473;33;20199;-59
2022/08/08 03:17:57;;;;;;;0.37;0.37;;;;;;;18.91;67.51;95855.31;4300334;33;20249;-58
2022/08/08 03:20:23;;;;;;;0.63;0.63;;;;;;;19.01;68.44;95854.87;4289671;33;20245;-59
2022/08/08 03:22:50;;;;;;;0.50;0.50;;;;;;;18.86;68.37;95858.97;4301864;33;20221;-57
2022/08/08 03:25:19;;;;;;;0.60;0.60;;;;;;;18.99;69.37;95857.88;4296971;33;20338;-58
2022/08/08 03:27:56;;;;;;;14.57;0.70;;;;;;;18.94;70.50;95860.78;4299103;33;20186;-57
2022/08/08 03:30:22;;;;;;;0.50;0.50;;;;;;;18.81;67.90;95857.28;4296908;33;20246;-57
2022/08/08 03:35:37;;;;;;;0.53;0.53;;;;;;;19.09;70.01;95857.47;4285485;33;20209;-60
2022/08/08 03:38:03;;;;;;;0.67;0.53;;;;;;;19.03;68.78;95852.63;4286922;33;20218;-57
2022/08/08 03:40:28;;;;;;;0.40;0.40;;;;;;;19.13;69.08;95852.19;4293147;33;20314;-58
2022/08/08 03:42:53;;;;;;;0.30;0.30;;;;;;;18.92;67.79;95857.63;4287537;33;20202;-58
2022/08/08 03:45:22;;;;;;;0.50;0.50;;;;;;;18.92;69.89;95857.63;4296475;33;20238;-59
2022/08/08 03:48:14;;;;;;;0.50;0.50;;;;;;;18.94;69.58;95857.31;4286169;33;20216;-57
2022/08/08 03:50:44;;;;;;;0.97;0.97;;;;;;;18.80;69.16;95863.00;4268018;33;20205;-58
2022/08/08 03:53:13;;;;;;;2.00;0.80;;;;;;;18.64;69.86;95864.75;4288693;33;20237;-58
2022/08/08 03:55:40;;;;;;;0.43;0.43;;;;;;;18.56;69.53;95863.66;4295258;33;20222;-58
2022/08/08 03:58:07;;;;;;;0.80;0.80;;;;;;;18.65;70.23;95866.31;4295945;33;20217;-58
2022/08/08 04:00:32;;;;;;;0.63;0.63;;;;;;;18.73;70.47;95868.13;4294430;33;20237;-57
2022/08/08 04:02:59;;;;;;;0.77;0.77;;;;;;;18.70;70.48;95866.12;4299492;33;20293;-58
2022/08/08 04:05:27;;;;;;;0.83;0.83;;;;;;;18.72;70.78;95861.16;4293672;33;20190;-58
2022/08/08 04:07:52;;;;;;;0.80;0.80;;;;;;;18.66;70.68;95859.81;4300129;33;20213;-58
2022/08/08 04:10:17;;;;;;;0.70;0.70;;;;;;;18.62;71.24;95865.06;4294442;33;20210;-58
2022/08/08 04:12:43;;;;;;;1.13;1.03;;;;;;;18.63;71.11;95865.84;4292551;33;20262;-57
2022/08/08 04:15:08;;;;;;;0.40;0.40;;;;;;;18.69;71.76;95869.91;4289070;33;20238;-58
2022/08/08 04:17:34;;;;;;;1.47;1.37;;;;;;;18.88;71.14;95870.19;4289935;33;20187;-58
2022/08/08 04:19:59;;;;;;;0.83;0.83;;;;;;;19.00;70.51;95872.91;4288373;33;20293;-58
2022/08/08 04:22:26;;;;;;;1.30;0.80;;;;;;;18.95;70.31;95869.63;4285680;33;20209;-58
2022/08/08 04:24:53;;;;;;;0.80;0.80;;;;;;;18.92;70.12;95872.97;4278050;33;20226;-57
2022/08/08 04:27:19;;;;;;;0.80;0.80;;;;;;;18.99;70.38;95874.00;4299189;33;20198;-60
2022/08/08 04:29:45;;;;;;;0.73;0.73;;;;;;;18.98;70.53;95885.87;4276059;33;20187;-59
2022/08/08 04:32:13;;;;;;;0.60;0.60;;;;;;;18.70;71.04;95882.25;4285038;33;20201;-55
2022/08/08 04:34:39;;;;;;;1.07;1.07;;;;;;;18.55;71.42;95887.06;4274411;33;20238;-59
2022/08/08 04:37:04;;;;;;;1.33;1.33;;;;;;;18.69;71.11;95888.72;4288039;33;20205;-58
2022/08/08 04:39:29;;;;;;;0.47;0.47;;;;;;;18.60;70.67;95899.56;4285320;33;20269;-57
2022/08/08 04:41:55;;;;;;;1.27;1.13;;;;;;;18.81;71.17;95894.13;4286119;33;20187;-58
2022/08/08 04:44:20;;;;;;;0.50;0.50;;;;;;;18.59;70.56;95899.84;4285474;33;20210;-58
2022/08/08 04:46:45;;;;;;;0.40;0.40;;;;;;;18.39;70.39;95894.16;4288022;33;20262;-57
2022/08/08 04:49:11;;;;;;;1.23;1.13;;;;;;;18.65;71.23;95903.94;4275339;33;20258;-57
2022/08/08 04:51:36;;;;;;;0.93;0.80;;;;;;;18.43;72.15;95903.16;4296656;33;20199;-59
2022/08/08 04:54:01;;;;;;;0.67;0.67;;;;;;;18.46;72.63;95907.87;4280934;33;20194;-58
2022/08/08 04:56:26;;;;;;;2.00;1.03;;;;;;;18.65;72.10;95906.63;4291515;33;20205;-58
2022/08/08 04:58:52;;;;;;;1.23;1.23;;;;;;;18.61;72.55;95911.09;4291349;33;20191;-57
2022/08/08 05:01:17;;;;;;;0.57;0.57;;;;;;;18.51;72.41;95914.91;4299718;33;20190;-56
2022/08/08 05:03:42;;;;;;;1.00;1.00;;;;;;;18.72;72.06;95910.34;4293828;33;20304;-57
2022/08/08 05:06:11;;;;;;;2.10;1.47;;;;;;;18.58;72.18;95919.78;4287852;33;20289;-58
2022/08/08 05:08:36;;;;;;;1.63;1.57;;;;;;;18.82;72.07;95917.22;4302111;33;20203;-57
2022/08/08 05:11:02;;;;;;;1.03;1.03;;;;;;;18.73;71.85;95919.19;4285853;33;20237;-57
2022/08/08 05:13:27;;;;;;;0.70;0.70;;;;;;;18.53;72.62;95916.16;4290756;33;20209;-58
2022/08/08 05:15:53;;;;;;;0.60;0.60;;;;;;;18.78;73.04;95922.47;4297034;33;20198;-61
2022/08/08 05:18:18;;;;;;;0.97;0.97;;;;;;;18.84;72.17;95917.69;4282570;33;20199;-58
2022/08/08 05:20:43;;;;;;;1.40;1.30;;;;;;;18.81;71.45;95929.09;4278747;33;20258;-57
2022/08/08 05:23:09;;;;;;;0.90;0.90;;;;;;;18.86;71.59;95931.59;4295736;33;20182;-58
2022/08/08 05:25:36;;;;;;;0.83;0.83;;;;;;;18.65;72.99;95936.19;4282999;33;20186;-59
2022/08/08 05:28:01;;;;;;;1.10;1.07;;;;;;;18.43;72.90;95937.28;4288147;33;20254;-58
2022/08/08 05:30:26;;;;;;;0.77;0.77;;;;;;;18.54;73.78;95923.13;4291317;33;20284;-59
2022/08/08 05:32:52;;;;;;;1.03;1.03;;;;;;;18.51;72.96;95925.66;4294365;33;20198;-58
2022/08/08 05:35:21;;;;;;;0.80;0.80;;;;;;;18.72;72.81;95920.31;4286177;33;20204;-58
2022/08/08 05:37:58;;;;;;;0.73;0.73;;;;;;;18.90;72.46;95923.63;4299419;33;20198;-58
2022/08/08 05:40:26;;;;;;;1.17;1.17;;;;;;;18.80;72.37;95924.81;4288174;33;20183;-58
2022/08/08 05:42:58;;;;;;;4.43;2.17;;;;;;;18.84;71.54;95921.16;4297159;33;20195;-58
2022/08/08 05:45:23;;;;;;;4.40;1.77;;;;;;;18.66;72.98;95930.50;4286024;33;20245;-63
2022/08/08 05:47:49;;;;;;;4.87;1.57;;;;;;;18.44;72.00;95933.50;4292270;33;20211;-58
2022/08/08 05:50:17;;;;;;;11.73;1.37;;;;;;;18.64;73.44;95938.09;4279830;33;20191;-58
2022/08/08 05:52:42;;;;;;;0.97;0.97;;;;;;;18.73;71.67;95946.84;4284501;33;20200;-59
2022/08/08 05:55:09;;;;;;;1.07;1.07;;;;;;;18.68;71.38;95938.22;4280709;33;20214;-56
2022/08/08 05:57:36;;;;;;;0.90;0.90;;;;;;;18.81;72.06;95935.25;4295698;33;20190;-58
2022/08/08 06:00:06;;;;;;;1.57;1.23;;;;;;;18.68;71.08;95938.22;4299752;33;20205;-58
2022/08/08 06:05:18;;;;;;;3.90;1.60;;;;;;;18.83;71.23;95943.00;4292272;33;20217;-59
2022/08/08 06:07:47;;;;;;;0.70;0.70;;;;;;;18.92;71.36;95938.31;4299740;33;20262;-58
2022/08/08 06:10:13;;;;;;;1.43;0.80;;;;;;;18.92;70.95;95943.69;4269444;33;20266;-56
2022/08/08 06:12:41;;;;;;;0.77;0.77;;;;;;;18.84;69.94;95945.34;4298018;33;20298;-59
2022/08/08 06:15:09;;;;;;;0.63;0.63;;;;;;;18.76;71.14;95948.91;4296407;33;20206;-59
2022/08/08 06:17:40;;;;;;;1.33;0.90;;;;;;;18.68;71.27;95954.34;4287917;33;20229;-59
2022/08/08 06:20:08;;;;;;;1.20;1.13;;;;;;;18.83;71.16;95949.16;4287677;33;20238;-58
2022/08/08 06:22:34;;;;;;;1.60;1.60;;;;;;;18.92;71.22;95953.66;4291717;33;20213;-58
2022/08/08 06:24:59;;;;;;;1.23;1.20;;;;;;;18.99;70.97;95948.53;4285050;33;20222;-58
2022/08/08 06:27:39;;;;;;;1.47;1.47;;;;;;;18.95;70.60;95953.78;4293873;33;20202;-60
2022/08/08 06:30:08;;;;;;;1.07;0.97;;;;;;;19.06;71.37;95944.19;4297986;33;20190;-58
2022/08/08 06:32:45;;;;;;;0.80;0.80;;;;;;;19.36;70.80;95955.56;4286507;33;20199;-58
2022/08/08 06:35:13;;;;;;;0.83;0.83;;;;;;;19.45;69.82;95950.91;4282895;33;20240;-59
2022/08/08 06:37:45;;;;;;;1.57;1.50;;;;;;;19.53;69.09;95957.34;4266444;33;20217;-59
2022/08/08 06:40:13;;;;;;;1.00;1.00;;;;;;;19.51;69.29;95965.75;4292496;33;20274;-58
2022/08/08 06:42:42;;;;;;;1.37;1.37;;;;;;;19.55;68.28;95961.25;4272348;33;20257;-59
2022/08/08 06:45:08;;;;;;;1.20;1.20;;;;;;;19.59;67.03;95958.69;4289328;33;20245;-59
2022/08/08 06:47:34;;;;;;;1.67;1.57;;;;;;;19.57;67.20;95960.91;4296477;33;20202;-59
2022/08/08 06:50:00;;;;;;;1.23;1.23;;;;;;;19.64;67.34;95963.06;4280012;33;20183;-59
2022/08/08 06:52:26;;;;;;;2.90;1.60;;;;;;;19.76;67.95;95966.53;4280918;33;20236;-58
2022/08/08 06:54:54;;;;;;;2.00;1.90;;;;;;;19.79;66.89;95965.88;4294899;33;20224;-58
2022/08/08 06:57:20;;;;;;;1.57;1.47;;;;;;;19.71;67.43;95969.47;4292739;33;20213;-58
2022/08/08 06:59:45;;;;;;;1.13;1.13;;;;;;;19.71;68.36;95972.16;4272737;33;20186;-58
2022/08/08 07:02:22;;;;;;;1.27;1.27;;;;;;;19.71;67.61;95979.47;4274132;33;20221;-57
2022/08/08 07:05:05;;;;;;;0.97;0.97;;;;;;;19.77;67.74;95978.09;4284656;33;20185;-58
2022/08/08 07:07:48;;;;;;;1.53;1.43;;;;;;;19.83;67.53;95969.47;4294055;33;20187;-59
2022/08/08 07:10:18;;;;;;;2.03;2.03;;;;;;;19.98;66.94;95978.78;4280759;33;20322;-59
2022/08/08 07:13:05;;;;;;;1.57;1.57;;;;;;;19.97;67.10;95977.19;4284904;33;20194;-59
2022/08/08 07:15:35;;;;;;;1.03;1.03;;;;;;;19.97;67.95;95981.81;4276551;33;20204;-57
2022/08/08 07:18:06;;;;;;;2.00;1.33;;;;;;;20.01;67.45;95986.19;4287585;33;20206;-59
2022/08/08 07:20:43;;;;;;;1.43;1.33;;;;;;;19.95;66.78;95990.25;4282406;33;20194;-58
2022/08/08 07:23:22;;;;;;;1.10;1.10;;;;;;;20.00;66.74;95989.22;4295095;33;20186;-58
2022/08/08 07:25:50;;;;;;;0.80;0.80;;;;;;;20.13;65.51;95985.41;4292866;33;20203;-57
2022/08/08 07:28:21;;;;;;;0.87;0.87;;;;;;;20.09;65.97;95988.00;4295005;33;20195;-59
2022/08/08 07:30:47;;;;;;;0.77;0.77;;;;;;;20.21;65.85;95992.59;4296016;33;20202;-58
2022/08/08 07:33:14;;;;;;;1.17;1.17;;;;;;;20.16;66.11;95990.88;4299677;33;20209;-59
2022/08/08 07:35:40;;;;;;;0.97;0.97;;;;;;;20.28;66.62;95992.81;4294259;33;20226;-59
2022/08/08 07:38:08;;;;;;;1.13;1.03;;;;;;;20.31;65.97;95997.53;4285586;33;20191;-59
2022/08/08 07:40:34;;;;;;;0.67;0.67;;;;;;;20.30;65.79;95995.94;4293827;33;20210;-59
2022/08/08 07:43:02;;;;;;;0.83;0.83;;;;;;;20.37;65.93;95996.19;4299534;33;20226;-58
2022/08/08 07:45:27;;;;;;;1.00;1.00;;;;;;;20.40;65.23;95992.81;4296065;33;20229;-58
2022/08/08 07:47:53;;;;;;;0.87;0.87;;;;;;;20.47;64.75;96003.81;4286963;33;20203;-58
2022/08/08 07:50:20;;;;;;;0.80;0.80;;;;;;;20.31;66.11;95997.53;4292706;33;20190;-58
2022/08/08 07:52:49;;;;;;;0.77;0.77;;;;;;;20.45;65.45;96000.66;4284162;33;20194;-58
2022/08/08 07:55:26;;;;;;;0.70;0.70;;;;;;;20.53;65.78;96007.84;4287580;33;23068;-58
2022/08/08 07:58:13;;;;;;;1.20;1.20;;;;;;;20.57;65.07;95999.87;4297352;33;20197;-59
2022/08/08 08:00:51;;;;;;;1.63;0.73;;;;;;;20.59;64.80;95997.59;4294177;33;20198;-58
2022/08/08 08:03:46;;;;;;;0.77;0.77;;;;;;;20.67;64.02;96001.31;4286768;33;20190;-57
2022/08/08 08:06:12;;;;;;;1.07;1.03;;;;;;;20.65;62.93;96000.84;4280228;33;20191;-58
2022/08/08 08:08:41;;;;;;;0.33;0.33;;;;;;;20.65;62.88;95998.16;4285427;33;20207;-59
2022/08/08 08:11:15;;;;;;;0.40;0.40;;;;;;;20.68;63.65;96005.56;4279314;33;20202;-62
2022/08/08 08:13:46;;;;;;;0.80;0.80;;;;;;;20.74;63.45;96013.09;4274244;33;20218;-63
2022/08/08 08:16:19;;;;;;;0.80;0.80;;;;;;;20.59;63.70;96011.88;4265736;33;20221;-57
2022/08/08 08:18:47;;;;;;;0.80;0.80;;;;;;;20.56;64.04;96003.69;4289533;33;20309;-59
2022/08/08 08:21:15;;;;;;;4.87;1.97;;;;;;;20.55;64.20;96008.31;4301456;33;20195;-58
2022/08/08 08:23:40;;;;;;;1.07;1.07;;;;;;;20.72;63.75;96009.16;4298511;33;20245;-59
2022/08/08 08:26:12;;;;;;;1.50;1.00;;;;;;;20.80;64.08;96008.22;4279585;33;20202;-58
2022/08/08 08:28:38;;;;;;;0.70;0.70;;;;;;;20.90;63.61;96013.16;4300490;33;20194;-59
2022/08/08 08:31:04;;;;;;;2.57;1.43;;;;;;;20.95;62.66;96015.63;4286473;33;20190;-59
2022/08/08 08:33:37;;;;;;;1.43;0.80;;;;;;;20.90;61.81;96007.75;4292445;33;20191;-58
2022/08/08 08:36:03;;;;;;;0.80;0.80;;;;;;;20.89;62.19;96011.59;4281497;33;20278;-58
2022/08/08 08:38:30;;;;;;;0.40;0.40;;;;;;;20.98;61.48;96009.53;4300554;33;20225;-58
2022/08/08 08:40:56;;;;;;;1.03;1.03;;;;;;;21.12;59.53;96009.94;4299543;33;20257;-58
2022/08/08 08:43:22;;;;;;;0.50;0.50;;;;;;;21.16;59.34;96012.72;4302445;33;20230;-58
2022/08/08 08:45:48;;;;;;;0.90;0.90;;;;;;;21.13;59.19;96014.22;4297593;33;20195;-58
2022/08/08 08:48:16;;;;;;;0.30;0.30;;;;;;;21.17;58.36;96011.59;4292896;33;20298;-58
2022/08/08 08:50:43;;;;;;;0.33;0.33;;;;;;;21.16;59.62;96012.72;4293664;33;20203;-57
2022/08/08 08:53:10;;;;;;;0.67;0.67;;;;;;;21.33;59.12;96008.97;4301055;33;20262;-57
2022/08/08 08:55:37;;;;;;;0.50;0.50;;;;;;;21.25;59.48;96018.78;4293645;33;20194;-57
2022/08/08 08:58:06;;;;;;;0.30;0.30;;;;;;;21.35;58.45;96017.50;4299903;33;20202;-56
2022/08/08 09:00:35;;;;;;;0.80;0.80;;;;;;;21.34;58.83;96011.34;4300727;33;20245;-57
2022/08/08 09:03:08;;;;;;;0.40;0.40;;;;;;;21.37;58.40;96004.47;4278609;33;20205;-56
2022/08/08 09:05:39;;;;;;;1.07;1.07;;;;;;;21.56;57.80;96015.37;4287182;33;20217;-58
2022/08/08 09:08:06;;;;;;;0.70;0.70;;;;;;;21.49;58.85;96017.88;4285622;33;20191;-56
2022/08/08 09:10:33;;;;;;;0.80;0.80;;;;;;;21.67;57.57;96010.25;4298369;33;20194;-58
2022/08/08 09:12:59;;;;;;;0.33;0.33;;;;;;;21.67;58.11;96016.44;4295554;33;20262;-58
2022/08/08 09:15:25;;;;;;;0.50;0.50;;;;;;;21.82;57.07;96015.66;4301008;33;20299;-59
2022/08/08 09:17:50;;;;;;;0.70;0.70;;;;;;;21.84;56.60;96015.28;4290831;33;20191;-57
2022/08/08 09:20:16;;;;;;;1.10;1.07;;;;;;;21.79;56.68;96013.66;4276771;33;20194;-58
2022/08/08 09:22:43;;;;;;;0.43;0.43;;;;;;;21.77;57.19;96007.81;4289195;33;20190;-58
2022/08/08 09:25:09;;;;;;;0.53;0.53;;;;;;;21.82;56.95;96012.94;4285844;33;20194;-57
2022/08/08 09:27:35;;;;;;;0.70;0.70;;;;;;;21.86;56.46;96005.72;4280415;33;20231;-55
2022/08/08 09:30:07;;;;;;;0.33;0.33;;;;;;;21.84;55.24;96018.00;4298001;33;20194;-57
2022/08/08 09:32:43;;;;;;;0.63;0.63;;;;;;;21.96;53.67;96009.81;4279768;33;20253;-56
2022/08/08 09:35:14;;;;;;;0.87;0.87;;;;;;;22.06;52.82;96014.72;4300846;33;20189;-57
2022/08/08 09:37:45;;;;;;;0.57;0.57;;;;;;;22.07;52.58;96018.22;4290180;33;20324;-58
2022/08/08 09:40:13;;;;;;;0.50;0.50;;;;;;;22.02;52.30;96018.50;4300169;33;20200;-57
2022/08/08 09:42:42;;;;;;;0.60;0.60;;;;;;;21.96;53.01;96017.94;4290524;33;20241;-57
2022/08/08 09:45:18;;;;;;;0.50;0.50;;;;;;;21.91;53.41;96021.69;4301523;33;20253;-57
2022/08/08 09:47:43;;;;;;;0.70;0.70;;;;;;;21.88;53.34;96016.19;4289248;33;20198;-57
2022/08/08 09:50:14;;;;;;;0.87;0.87;;;;;;;21.99;53.30;96016.47;4293067;33;20226;-58
2022/08/08 09:52:45;;;;;;;0.30;0.30;;;;;;;22.04;53.56;96008.88;4280767;33;20226;-58
2022/08/08 09:55:10;;;;;;;0.60;0.60;;;;;;;22.13;53.28;96006.00;4301356;33;20182;-57
2022/08/08 09:57:40;;;;;;;0.60;0.60;;;;;;;22.16;53.71;96008.81;4299186;33;20240;-58
2022/08/08 10:00:11;;;;;;;0.67;0.67;;;;;;;22.31;53.26;96001.00;4301891;33;20236;-57
2022/08/08 10:02:39;;;;;;;0.77;0.77;;;;;;;22.40;52.86;96010.50;4299272;33;20265;-58
2022/08/08 10:05:15;;;;;;;0.60;0.60;;;;;;;22.48;52.72;96014.16;4292126;33;20227;-56
2022/08/08 10:07:49;;;;;;;0.70;0.70;;;;;;;22.60;51.48;96012.13;4296756;33;20186;-57
2022/08/08 10:10:25;;;;;;;0.87;0.87;;;;;;;22.67;51.50;95999.87;4282102;33;20292;-58
2022/08/08 10:12:51;;;;;;;0.30;0.30;;;;;;;22.78;51.96;96007.13;4291409;33;20199;-57
2022/08/08 10:15:17;;;;;;;0.70;0.70;;;;;;;22.82;52.01;96001.78;4281558;33;20213;-57
2022/08/08 10:17:44;;;;;;;0.63;0.63;;;;;;;22.75;51.50;96007.00;4294702;33;20195;-57
2022/08/08 10:20:11;;;;;;;0.70;0.70;;;;;;;22.67;50.27;95999.87;4298036;33;20230;-58
2022/08/08 10:22:43;;;;;;;0.80;0.80;;;;;;;22.65;51.03;96007.59;4294159;33;20221;-57
2022/08/08 10:25:17;;;;;;;0.40;0.40;;;;;;;22.52;51.48;96010.38;4301050;33;20193;-57
2022/08/08 10:27:42;;;;;;;0.97;0.97;;;;;;;22.43;52.13;95996.28;4301414;33;20237;-57
2022/08/08 10:30:09;;;;;;;0.70;0.70;;;;;;;22.49;52.79;95994.06;4306499;33;20210;-58
2022/08/08 10:32:41;;;;;;;0.67;0.67;;;;;;;22.68;52.42;95996.03;4296618;33;20226;-56
2022/08/08 10:35:14;;;;;;;0.20;0.20;;;;;;;22.78;51.98;95996.28;4287351;33;20221;-57
2022/08/08 10:37:57;;;;;;;0.50;0.50;;;;;;;23.00;51.06;95997.53;4291987;33;20280;-58
2022/08/08 10:40:25;;;;;;;0.57;0.57;;;;;;;23.03;51.38;95996.03;4300115;33;20198;-58
2022/08/08 10:42:57;;;;;;;0.57;0.57;;;;;;;22.92;51.94;95999.28;4293429;33;20265;-57
2022/08/08 10:45:23;;;;;;;1.00;1.00;;;;;;;22.94;52.54;95998.94;4300597;33;20198;-57
2022/08/08 10:47:54;;;;;;;0.50;0.50;;;;;;;22.95;52.51;95995.88;4292212;33;20193;-57
2022/08/08 10:50:20;;;;;;;0.77;0.77;;;;;;;22.89;52.86;95999.22;4294526;33;20199;-57
2022/08/08 10:52:46;;;;;;;0.33;0.33;;;;;;;22.85;53.12;95995.66;4288001;33;20195;-56
2022/08/08 10:55:18;;;;;;;0.40;0.40;;;;;;;22.81;54.29;95998.28;4281277;33;20205;-55
2022/08/08 10:57:48;;;;;;;0.73;0.73;;;;;;;22.88;52.29;96005.75;4285568;33;20218;-57
2022/08/08 11:00:20;;;;;;;0.90;0.90;;;;;;;22.83;51.48;96000.66;4299793;33;20190;-57
2022/08/08 11:02:45;;;;;;;0.40;0.40;;;;;;;22.72;51.61;95992.25;4289856;33;20257;-56
2022/08/08 11:05:12;;;;;;;0.50;0.50;;;;;;;22.62;52.49;95996.31;4300440;33;20277;-58
2022/08/08 11:07:40;;;;;;;0.60;0.60;;;;;;;22.62;53.14;95993.63;4283335;33;20194;-59
2022/08/08 11:10:10;;;;;;;0.70;0.70;;;;;;;22.69;53.05;95989.47;4298124;33;20198;-58
2022/08/08 11:12:52;;;;;;;1.47;1.10;;;;;;;22.65;53.17;95999.47;4273142;33;20198;-58
2022/08/08 11:15:23;;;;;;;0.67;0.67;;;;;;;22.62;53.25;95995.53;4289599;33;20185;-57
2022/08/08 11:17:50;;;;;;;0.40;0.40;;;;;;;22.53;53.63;95995.72;4279786;33;20211;-57
2022/08/08 11:20:28;;;;;;;0.57;0.57;;;;;;;22.57;53.44;95995.81;4297531;33;20205;-58
2022/08/08 11:22:59;;;;;;;0.67;0.67;;;;;;;22.55;53.28;95988.03;4281956;33;20209;-58
2022/08/08 11:25:27;;;;;;;0.87;0.87;;;;;;;22.65;52.44;95991.34;4297889;33;20212;-63
2022/08/08 11:27:55;;;;;;;0.80;0.80;;;;;;;22.82;51.46;95997.16;4287932;33;20213;-56
2022/08/08 11:30:27;;;;;;;0.80;0.80;;;;;;;22.81;52.13;95983.97;4297879;33;20187;-57
2022/08/08 11:33:00;;;;;;;0.60;0.60;;;;;;;22.79;51.84;95995.16;4291476;33;20246;-58
2022/08/08 11:35:26;;;;;;;0.80;0.80;;;;;;;22.83;52.07;95977.09;4297105;33;20193;-57
2022/08/08 11:37:52;;;;;;;0.40;0.40;;;;;;;22.86;49.94;95986.41;4290065;33;20209;-58
2022/08/08 11:40:17;;;;;;;0.63;0.63;;;;;;;22.81;50.79;95982.06;4287928;33;20194;-57
2022/08/08 11:42:43;;;;;;;0.50;0.50;;;;;;;22.85;49.93;95991.03;4279737;33;20198;-58
2022/08/08 11:45:10;;;;;;;0.50;0.50;;;;;;;22.82;50.21;95989.03;4284289;33;20194;-59
2022/08/08 11:47:38;;;;;;;0.20;0.20;;;;;;;22.87;50.56;95982.53;4290260;33;20213;-58
2022/08/08 11:50:12;;;;;;;0.40;0.40;;;;;;;22.98;50.10;95982.78;4296627;33;20194;-58
2022/08/08 11:52:39;;;;;;;0.30;0.30;;;;;;;22.84;49.70;95967.81;4273073;33;20221;-58
2022/08/08 11:55:17;;;;;;;0.50;0.50;;;;;;;22.96;50.70;95981.19;4287269;33;20262;-57
2022/08/08 11:57:43;;;;;;;0.73;0.73;;;;;;;23.06;49.66;95974.44;4292576;33;20197;-58
2022/08/08 12:00:16;;;;;;;2.97;0.77;;;;;;;23.12;50.29;95983.81;4286174;33;20191;-58
2022/08/08 12:02:56;;;;;;;0.40;0.40;;;;;;;23.13;49.46;95984.59;4279568;33;20175;-59
2022/08/08 12:05:37;;;;;;;1.20;1.20;;;;;;;23.20;49.03;95979.34;4296617;33;20198;-58
2022/08/08 12:08:03;;;;;;;0.33;0.33;;;;;;;23.12;49.76;95973.00;4298019;33;20263;-58